createdAt,value
2022-10-11T00:01:22.307Z,100887.00
2022-10-11T00:03:54.763Z,100893.19
2022-10-11T00:06:21.602Z,100887.75
2022-10-11T00:08:49.643Z,100886.09
2022-10-11T00:11:16.484Z,100881.06
2022-10-11T00:13:43.146Z,100887.63
2022-10-11T00:16:11.448Z,100885.22
2022-10-11T00:18:38.879Z,100879.34
2022-10-11T00:21:25.778Z,100877.13
2022-10-11T00:23:52.496Z,100881.13
2022-10-11T00:26:19.115Z,100872.97
2022-10-11T00:28:46.031Z,100869.31
2022-10-11T00:31:15.854Z,100875.31
2022-10-11T00:33:42.868Z,100867.47
2022-10-11T00:36:13.757Z,100867.09
2022-10-11T00:38:41.723Z,100866.47
2022-10-11T00:41:08.417Z,100871.66
2022-10-11T00:44:22.113Z,100873.03
2022-10-11T00:47:01.194Z,100864.22
2022-10-11T00:49:50.740Z,100868.03
2022-10-11T00:52:29.344Z,100860.97
2022-10-11T00:55:16.432Z,100862.12
2022-10-11T00:57:48.376Z,100864.31
2022-10-11T01:00:35.063Z,100866.22
2022-10-11T01:03:26.448Z,100865.97
2022-10-11T01:05:53.414Z,100868.09
2022-10-11T01:08:21.218Z,100866.25
2022-10-11T01:10:49.478Z,100856.22
2022-10-11T01:13:42.146Z,100868.91
2022-10-11T01:16:15.294Z,100867.28
2022-10-11T01:19:20.390Z,100858.88
2022-10-11T01:22:13.027Z,100858.88
2022-10-11T01:24:59.192Z,100860.81
2022-10-11T01:28:01.169Z,100859.66
2022-10-11T01:30:31.900Z,100864.84
2022-10-11T01:33:11.076Z,100867.63
2022-10-11T01:35:56.172Z,100860.28
2022-10-11T01:38:42.178Z,100853.97
2022-10-11T01:41:34.683Z,100855.13
2022-10-11T01:44:03.154Z,100849.63
2022-10-11T01:46:31.291Z,100832.94
2022-10-11T01:49:01.653Z,100848.81
2022-10-11T01:51:33.288Z,100850.13
2022-10-11T01:54:25.271Z,100848.38
2022-10-11T01:56:59.067Z,100848.62
2022-10-11T01:59:48.175Z,100835.25
2022-10-11T02:02:18.562Z,100836.91
2022-10-11T02:04:53.842Z,100837.97
2022-10-11T02:07:27.478Z,100840.75
2022-10-11T02:10:01.319Z,100841.69
2022-10-11T02:12:33.552Z,100832.66
2022-10-11T02:15:06.871Z,100838.66
2022-10-11T02:17:39.321Z,100844.16
2022-10-11T02:20:13.118Z,100836.38
2022-10-11T02:22:53.513Z,100835.16
2022-10-11T02:25:25.130Z,100835.09
2022-10-11T02:28:16.672Z,100833.69
2022-10-11T02:30:47.932Z,100823.84
2022-10-11T02:33:18.536Z,100823.47
2022-10-11T02:36:08.808Z,100831.00
2022-10-11T02:38:46.927Z,100824.75
2022-10-11T02:41:39.832Z,100835.53
2022-10-11T02:44:32.218Z,100836.34
2022-10-11T02:47:00.994Z,100846.78
2022-10-11T02:49:29.670Z,100844.81
2022-10-11T02:51:57.704Z,100845.00
2022-10-11T02:54:26.072Z,100851.72
2022-10-11T02:57:01.413Z,100846.16
2022-10-11T02:59:28.190Z,100851.88
2022-10-11T03:01:57.027Z,100852.06
2022-10-11T03:04:23.757Z,100851.94
2022-10-11T03:06:50.504Z,100860.63
2022-10-11T03:09:17.188Z,100856.84
2022-10-11T03:11:43.847Z,100867.25
2022-10-11T03:14:10.871Z,100868.75
2022-10-11T03:17:12.132Z,100865.41
2022-10-11T03:19:44.212Z,100858.84
2022-10-11T03:22:11.017Z,100852.84
2022-10-11T03:24:37.635Z,100859.72
2022-10-11T03:27:21.455Z,100864.69
2022-10-11T03:29:57.180Z,100848.62
2022-10-11T03:32:44.549Z,100863.25
2022-10-11T03:35:11.586Z,100869.78
2022-10-11T03:37:39.279Z,100864.28
2022-10-11T03:40:09.042Z,100856.50
2022-10-11T03:42:36.976Z,100862.25
2022-10-11T03:45:09.805Z,100855.09
2022-10-11T03:47:37.688Z,100860.22
2022-10-11T03:50:08.982Z,100853.16
2022-10-11T03:52:36.153Z,100858.09
2022-10-11T03:55:09.369Z,100862.44
2022-10-11T03:57:56.118Z,100859.72
2022-10-11T04:00:42.738Z,100860.69
2022-10-11T04:03:10.929Z,100864.53
2022-10-11T04:05:55.555Z,100859.16
2022-10-11T04:08:22.762Z,100858.53
2022-10-11T04:10:49.470Z,100863.87
2022-10-11T04:13:16.381Z,100870.09
2022-10-11T04:15:43.088Z,100875.69
2022-10-11T04:18:10.540Z,100872.59
2022-10-11T04:20:37.414Z,100867.53
2022-10-11T04:23:04.868Z,100868.03
2022-10-11T04:25:31.658Z,100879.06
2022-10-11T04:27:58.540Z,100887.94
2022-10-11T04:30:27.649Z,100883.72
2022-10-11T04:33:14.728Z,100889.59
2022-10-11T04:35:45.333Z,100879.44
2022-10-11T04:38:32.307Z,100888.25
2022-10-11T04:41:09.210Z,100885.44
2022-10-11T04:43:37.655Z,100877.84
2022-10-11T04:46:05.430Z,100879.88
2022-10-11T04:48:33.976Z,100883.88
2022-10-11T04:51:01.093Z,100884.94
2022-10-11T04:53:31.678Z,100882.13
2022-10-11T04:56:18.589Z,100876.03
2022-10-11T04:58:49.391Z,100877.87
2022-10-11T05:01:36.126Z,100875.13
2022-10-11T05:04:22.648Z,100875.97
2022-10-11T05:06:49.894Z,100872.03
2022-10-11T05:09:16.582Z,100882.88
2022-10-11T05:12:03.461Z,100882.28
2022-10-11T05:14:36.014Z,100881.69
2022-10-11T05:17:23.491Z,100878.38
2022-10-11T05:20:10.404Z,100876.41
2022-10-11T05:22:57.145Z,100878.63
2022-10-11T05:25:32.277Z,100884.72
2022-10-11T05:28:01.127Z,100878.75
2022-10-11T05:30:47.785Z,100880.59
2022-10-11T05:33:34.528Z,100886.84
2022-10-11T05:36:21.368Z,100889.44
2022-10-11T05:39:08.140Z,100896.50
2022-10-11T05:41:54.859Z,100889.69
2022-10-11T05:44:41.585Z,100892.31
2022-10-11T05:47:28.302Z,100902.78
2022-10-11T05:49:56.926Z,100901.75
2022-10-11T05:52:43.532Z,100906.03
2022-10-11T05:55:30.266Z,100908.50
2022-10-11T05:58:00.905Z,100910.22
2022-10-11T06:00:47.614Z,100917.19
2022-10-11T06:03:14.978Z,100921.19
2022-10-11T06:06:05.179Z,100919.41
2022-10-11T06:08:51.454Z,100920.19
2022-10-11T06:11:25.659Z,100919.88
2022-10-11T06:14:12.895Z,100921.69
2022-10-11T06:16:39.572Z,100922.94
2022-10-11T06:19:06.667Z,100931.19
2022-10-11T06:21:53.361Z,100929.00
2022-10-11T06:24:20.515Z,100933.97
2022-10-11T06:26:51.200Z,100938.13
2022-10-11T06:29:26.385Z,100941.72
2022-10-11T06:32:15.917Z,100941.06
2022-10-11T06:34:55.070Z,100944.63
2022-10-11T06:37:22.076Z,100938.37
2022-10-11T06:40:09.125Z,100933.88
2022-10-11T06:42:35.953Z,100941.97
2022-10-11T06:45:04.022Z,100946.03
2022-10-11T06:47:30.865Z,100945.25
2022-10-11T06:49:59.078Z,100949.94
2022-10-11T06:52:47.473Z,100951.06
2022-10-11T06:55:14.207Z,100954.97
2022-10-11T06:57:44.874Z,100950.16
2022-10-11T07:00:12.918Z,100960.34
2022-10-11T07:02:39.675Z,100964.81
2022-10-11T07:05:07.226Z,100965.38
2022-10-11T07:07:34.085Z,100956.69
2022-10-11T07:10:01.073Z,100957.81
2022-10-11T07:12:28.920Z,100959.84
2022-10-11T07:14:55.706Z,100959.16
2022-10-11T07:17:22.429Z,100959.91
2022-10-11T07:19:49.121Z,100958.94
2022-10-11T07:22:35.756Z,100959.41
2022-10-11T07:25:03.038Z,100962.06
2022-10-11T07:27:29.757Z,100966.44
2022-10-11T07:29:57.511Z,100960.75
2022-10-11T07:32:24.300Z,100959.78
2022-10-11T07:34:51.068Z,100958.59
2022-10-11T07:37:22.414Z,100956.28
2022-10-11T07:39:49.994Z,100962.97
2022-10-11T07:42:17.842Z,100969.81
2022-10-11T07:44:44.486Z,100968.59
2022-10-11T07:47:13.176Z,100974.50
2022-10-11T07:49:39.803Z,100959.56
2022-10-11T07:52:06.487Z,100952.97
2022-10-11T07:54:35.098Z,100953.44
2022-10-11T07:57:02.603Z,100954.44
2022-10-11T07:59:29.372Z,100963.81
2022-10-11T08:01:56.252Z,100963.59
2022-10-11T08:04:27.331Z,100962.28
2022-10-11T08:06:54.427Z,100969.34
2022-10-11T08:09:21.081Z,100968.28
2022-10-11T08:11:47.980Z,100970.91
2022-10-11T08:14:30.950Z,100966.16
2022-10-11T08:16:57.530Z,100973.06
2022-10-11T08:19:24.337Z,100975.53
2022-10-11T08:21:50.995Z,100970.16
2022-10-11T08:24:20.968Z,100979.13
2022-10-11T08:26:49.604Z,100976.81
2022-10-11T08:29:17.836Z,100984.00
2022-10-11T08:31:45.187Z,100984.81
2022-10-11T08:34:11.979Z,100982.94
2022-10-11T08:36:38.755Z,100983.94
2022-10-11T08:39:08.273Z,100980.31
2022-10-11T08:41:57.799Z,100982.09
2022-10-11T08:45:09.084Z,100977.41
2022-10-11T08:47:31.968Z,100978.25
2022-10-11T08:49:59.681Z,100979.59
2022-10-11T08:53:11.104Z,100984.44
2022-10-11T08:55:44.282Z,100978.88
2022-10-11T08:58:17.033Z,100975.31
2022-10-11T09:00:46.263Z,100972.81
2022-10-11T09:03:43.056Z,100977.06
2022-10-11T09:06:26.014Z,100974.84
2022-10-11T09:09:13.744Z,100974.38
2022-10-11T09:11:59.913Z,100982.25
2022-10-11T09:14:45.516Z,100983.38
2022-10-11T09:17:39.906Z,100985.03
2022-10-11T09:20:35.381Z,100992.06
2022-10-11T09:23:29.367Z,100984.19
2022-10-11T09:26:04.753Z,100980.97
2022-10-11T09:29:31.294Z,100976.44
2022-10-11T09:31:59.078Z,100982.59
2022-10-11T09:34:32.530Z,100982.50
2022-10-11T09:37:08.007Z,100978.84
2022-10-11T09:39:37.424Z,100978.59
2022-10-11T09:42:08.001Z,100975.50
2022-10-11T09:44:40.098Z,100977.84
2022-10-11T09:47:12.790Z,100978.16
2022-10-11T09:49:42.956Z,100982.63
2022-10-11T09:52:16.687Z,100979.50
2022-10-11T09:54:49.623Z,100979.84
2022-10-11T09:57:33.540Z,100983.25
2022-10-11T10:00:23.087Z,100984.41
2022-10-11T10:02:51.476Z,100983.38
2022-10-11T10:05:29.463Z,100986.06
2022-10-11T10:08:09.167Z,100981.03
2022-10-11T10:10:41.940Z,100979.41
2022-10-11T10:13:38.271Z,100976.75
2022-10-11T10:16:05.825Z,100980.28
2022-10-11T10:18:48.937Z,100978.44
2022-10-11T10:21:16.342Z,100982.69
2022-10-11T10:23:43.450Z,100980.81
2022-10-11T10:26:13.503Z,100970.78
2022-10-11T10:28:54.052Z,100965.56
2022-10-11T10:32:12.769Z,100972.97
2022-10-11T10:34:38.600Z,100969.44
2022-10-11T10:37:32.381Z,100960.31
2022-10-11T10:40:08.121Z,100963.38
2022-10-11T10:42:35.906Z,100964.41
2022-10-11T10:45:09.706Z,100966.59
2022-10-11T10:47:56.937Z,100962.34
2022-10-11T10:50:27.559Z,100967.59
2022-10-11T10:53:21.716Z,100967.66
2022-10-11T10:56:19.866Z,100966.81
2022-10-11T10:59:12.903Z,100965.34
2022-10-11T11:02:15.917Z,100964.28
2022-10-11T11:05:03.037Z,100952.56
2022-10-11T11:07:32.712Z,100957.22
2022-10-11T11:10:05.578Z,100955.00
2022-10-11T11:13:06.267Z,100952.44
2022-10-11T11:15:53.302Z,100953.75
2022-10-11T11:18:42.342Z,100959.13
2022-10-11T11:21:21.145Z,100958.94
2022-10-11T11:23:59.131Z,100956.66
2022-10-11T11:26:44.183Z,100959.53
2022-10-11T11:29:43.631Z,100957.09
2022-10-11T11:32:58.228Z,100951.06
2022-10-11T11:35:37.977Z,100943.53
2022-10-11T11:38:11.519Z,100939.22
2022-10-11T11:40:43.932Z,100947.66
2022-10-11T11:43:36.861Z,100945.94
2022-10-11T11:46:13.070Z,100950.75
2022-10-11T11:48:40.301Z,100946.94
2022-10-11T11:51:18.913Z,100942.47
2022-10-11T11:54:16.776Z,100940.28
2022-10-11T11:57:02.626Z,100942.56
2022-10-11T11:59:47.522Z,100947.69
2022-10-11T12:02:41.497Z,100930.97
2022-10-11T12:05:10.639Z,100928.56
2022-10-11T12:08:00.634Z,100921.06
2022-10-11T12:10:54.563Z,100933.62
2022-10-11T12:13:35.501Z,100935.97
2022-10-11T12:16:09.853Z,100930.75
2022-10-11T12:18:58.976Z,100924.53
2022-10-11T12:21:40.125Z,100929.34
2022-10-11T12:24:20.601Z,100930.34
2022-10-11T12:26:58.643Z,100925.44
2022-10-11T12:29:47.350Z,100926.31
2022-10-11T12:32:35.399Z,100924.31
2022-10-11T12:35:30.124Z,100922.34
2022-10-11T12:38:14.848Z,100913.25
2022-10-11T12:40:42.794Z,100911.44
2022-10-11T12:43:14.322Z,100914.38
2022-10-11T12:45:47.861Z,100919.56
2022-10-11T12:48:44.112Z,100918.09
2022-10-11T12:51:28.238Z,100915.84
2022-10-11T12:54:26.586Z,100914.34
2022-10-11T12:57:36.217Z,100909.84
2022-10-11T13:00:26.035Z,100909.16
2022-10-11T13:02:54.795Z,100902.75
2022-10-11T13:05:49.686Z,100903.00
2022-10-11T13:08:32.746Z,100903.75
2022-10-11T13:11:16.414Z,100912.00
2022-10-11T13:13:56.763Z,100910.94
2022-10-11T13:16:44.169Z,100906.16
2022-10-11T13:19:13.711Z,100905.19
2022-10-11T13:21:40.366Z,100901.59
2022-10-11T13:24:14.607Z,100899.13
2022-10-11T13:26:43.148Z,100905.00
2022-10-11T13:29:19.339Z,100906.94
2022-10-11T13:31:47.863Z,100905.66
2022-10-11T13:34:16.793Z,100907.69
2022-10-11T13:36:46.744Z,100904.09
2022-10-11T13:39:40.184Z,100903.94
2022-10-11T13:42:14.069Z,100901.78
2022-10-11T13:44:42.218Z,100904.72
2022-10-11T13:47:21.340Z,100905.41
2022-10-11T13:50:01.454Z,100913.34
2022-10-11T13:52:28.294Z,100905.69
2022-10-11T13:54:55.139Z,100908.97
2022-10-11T13:57:24.295Z,100910.66
2022-10-11T13:59:51.150Z,100904.75
2022-10-11T14:02:23.896Z,100905.03
2022-10-11T14:04:50.815Z,100914.63
2022-10-11T14:07:27.873Z,100906.59
2022-10-11T14:09:56.067Z,100909.53
2022-10-11T14:12:44.348Z,100902.84
2022-10-11T14:15:34.654Z,100908.37
2022-10-11T14:18:03.272Z,100903.84
2022-10-11T14:20:41.841Z,100914.13
2022-10-11T14:23:08.605Z,100911.59
2022-10-11T14:25:35.312Z,100911.19
2022-10-11T14:28:02.206Z,100913.19
2022-10-11T14:30:31.655Z,100907.78
2022-10-11T14:33:06.557Z,100906.03
2022-10-11T14:35:33.682Z,100903.00
2022-10-11T14:38:00.521Z,100911.87
2022-10-11T14:40:29.987Z,100916.41
2022-10-11T14:42:57.201Z,100903.66
2022-10-11T14:45:26.293Z,100905.50
2022-10-11T14:47:53.748Z,100913.47
2022-10-11T14:51:03.038Z,100907.09
2022-10-11T14:53:37.407Z,100914.84
2022-10-11T14:56:08.312Z,100912.16
2022-10-11T14:58:35.620Z,100910.50
2022-10-11T15:01:03.054Z,100915.84
2022-10-11T15:03:49.815Z,100918.78
2022-10-11T15:06:39.742Z,100916.31
2022-10-11T15:09:10.725Z,100914.56
2022-10-11T15:11:58.213Z,100908.97
2022-10-11T15:14:44.864Z,100908.22
2022-10-11T15:17:31.769Z,100908.78
2022-10-11T15:20:27.672Z,100916.91
2022-10-11T15:22:56.393Z,100913.41
2022-10-11T15:25:31.134Z,100920.44
2022-10-11T15:28:31.816Z,100926.75
2022-10-11T15:31:18.567Z,100923.81
2022-10-11T15:34:05.361Z,100927.38
2022-10-11T15:36:53.075Z,100922.59
2022-10-11T15:39:33.792Z,100931.97
2022-10-11T15:42:20.432Z,100931.72
2022-10-11T15:45:07.998Z,100928.00
2022-10-11T15:47:55.229Z,100936.50
2022-10-11T15:50:42.074Z,100930.28
2022-10-11T15:53:31.301Z,100934.31
2022-10-11T15:56:19.449Z,100931.72
2022-10-11T15:59:06.104Z,100948.06
2022-10-11T16:01:33.024Z,100943.81
2022-10-11T16:04:12.697Z,100942.56
2022-10-11T16:06:59.484Z,100948.13
2022-10-11T16:09:26.317Z,100960.53
2022-10-11T16:11:52.964Z,100952.00
2022-10-11T16:14:19.607Z,100955.72
2022-10-11T16:16:46.660Z,100954.19
2022-10-11T16:19:13.498Z,100953.84
2022-10-11T16:21:40.412Z,100960.97
2022-10-11T16:24:07.315Z,100963.63
2022-10-11T16:26:34.000Z,100967.28
2022-10-11T16:29:01.021Z,100973.13
2022-10-11T16:31:27.816Z,100976.78
2022-10-11T16:33:54.582Z,100975.00
2022-10-11T16:36:32.134Z,100976.22
2022-10-11T16:39:00.332Z,100971.81
2022-10-11T16:41:26.978Z,100980.88
2022-10-11T16:43:55.087Z,100976.06
2022-10-11T16:46:22.718Z,100981.53
2022-10-11T16:48:49.430Z,100981.16
2022-10-11T16:51:16.174Z,100978.53
2022-10-11T16:53:47.192Z,100981.38
2022-10-11T16:56:13.942Z,100981.19
2022-10-11T16:58:44.499Z,100988.59
2022-10-11T17:01:11.379Z,100989.41
2022-10-11T17:03:39.255Z,100983.41
2022-10-11T17:06:07.136Z,100988.84
2022-10-11T17:08:35.271Z,100989.84
2022-10-11T17:11:02.113Z,100996.28
2022-10-11T17:13:30.025Z,100990.03
2022-10-11T17:15:56.894Z,100994.06
2022-10-11T17:18:44.196Z,100997.66
2022-10-11T17:21:13.606Z,101010.31
2022-10-11T17:23:50.404Z,101003.28
2022-10-11T17:26:26.247Z,101004.44
2022-10-11T17:28:58.523Z,101008.44
2022-10-11T17:31:25.573Z,101014.44
2022-10-11T17:33:53.284Z,101004.22
2022-10-11T17:36:27.930Z,101010.81
2022-10-11T17:38:57.904Z,101012.63
2022-10-11T17:41:30.922Z,101016.41
2022-10-11T17:43:59.356Z,101009.16
2022-10-11T17:46:27.681Z,101008.97
2022-10-11T17:48:55.704Z,101026.81
2022-10-11T17:51:22.713Z,101025.59
2022-10-11T17:53:50.952Z,101019.41
2022-10-11T17:56:25.327Z,101019.78
2022-10-11T17:58:57.668Z,101017.56
2022-10-11T18:01:27.030Z,101026.19
2022-10-11T18:03:58.960Z,101025.72
2022-10-11T18:06:28.973Z,101012.50
2022-10-11T18:08:57.265Z,101019.13
2022-10-11T18:11:25.915Z,101023.13
2022-10-11T18:13:53.910Z,101019.13
2022-10-11T18:16:24.800Z,101009.69
2022-10-11T18:18:51.874Z,101014.50
2022-10-11T18:21:19.583Z,101018.88
2022-10-11T18:23:46.567Z,101024.66
2022-10-11T18:26:30.619Z,101022.03
2022-10-11T18:28:58.685Z,101028.44
2022-10-11T18:31:28.302Z,101025.62
2022-10-11T18:33:55.754Z,101032.47
2022-10-11T18:36:25.579Z,101031.03
2022-10-11T18:38:55.047Z,101033.06
2022-10-11T18:41:24.031Z,101029.25
2022-10-11T18:43:52.028Z,101036.25
2022-10-11T18:46:20.352Z,101035.25
2022-10-11T18:48:49.760Z,101032.66
2022-10-11T18:51:19.622Z,101030.84
2022-10-11T18:53:46.813Z,101033.44
2022-10-11T18:56:15.094Z,101034.47
2022-10-11T18:58:42.700Z,101036.87
2022-10-11T19:01:11.462Z,101036.69
2022-10-11T19:03:38.829Z,101034.09
2022-10-11T19:06:08.252Z,101035.66
2022-10-11T19:08:37.469Z,101027.84
2022-10-11T19:11:50.206Z,101032.28
2022-10-11T19:14:19.746Z,101035.25
2022-10-11T19:16:51.256Z,101032.44
2022-10-11T19:19:30.032Z,101034.38
2022-10-11T19:22:16.992Z,101034.47
2022-10-11T19:24:43.913Z,101046.28
2022-10-11T19:27:12.781Z,101040.69
2022-10-11T19:30:00.489Z,101038.03
2022-10-11T19:32:27.349Z,101040.97
2022-10-11T19:35:19.027Z,101044.16
2022-10-11T19:37:49.730Z,101047.31
2022-10-11T19:40:39.136Z,101035.47
2022-10-11T19:43:26.276Z,101045.84
2022-10-11T19:46:00.725Z,101053.38
2022-10-11T19:48:28.439Z,101050.00
2022-10-11T19:51:14.715Z,101051.50
2022-10-11T19:53:42.045Z,101051.50
2022-10-11T19:59:27.066Z,101049.22
2022-10-11T20:01:59.958Z,101052.19
2022-10-11T20:07:54.583Z,101055.34
2022-10-11T20:10:26.963Z,101055.34
2022-10-11T20:12:54.082Z,101056.91
2022-10-11T20:15:21.175Z,101055.50
2022-10-11T20:18:08.376Z,101063.66
2022-10-11T20:20:35.098Z,101057.63
2022-10-11T20:23:01.975Z,101059.63
2022-10-11T20:25:30.703Z,101058.81
2022-10-11T20:28:29.210Z,101056.59
2022-10-11T20:30:56.628Z,101059.00
2022-10-11T20:33:40.205Z,101058.19
2022-10-11T20:36:25.733Z,101057.56
2022-10-11T20:39:26.041Z,101058.19
2022-10-11T20:42:15.110Z,101051.03
2022-10-11T20:45:03.716Z,101065.06
2022-10-11T20:47:54.754Z,101056.53
2022-10-11T20:50:24.484Z,101055.41
2022-10-11T20:53:16.322Z,101056.72
2022-10-11T20:56:05.010Z,101058.66
2022-10-11T20:58:57.795Z,101052.16
2022-10-11T21:01:27.888Z,101051.63
2022-10-11T21:04:01.932Z,101053.34
2022-10-11T21:06:50.538Z,101056.41
2022-10-11T21:09:42.687Z,101056.28
2022-10-11T21:12:16.751Z,101053.66
2022-10-11T21:15:06.441Z,101065.56
2022-10-11T21:17:55.065Z,101058.38
2022-10-11T21:20:50.955Z,101063.16
2022-10-11T21:26:29.462Z,101062.41
2022-10-11T21:29:20.283Z,101063.56
2022-10-11T21:32:16.740Z,101069.56
2022-10-11T21:37:49.663Z,101071.81
2022-10-11T21:40:47.778Z,101072.38
2022-10-11T21:43:36.314Z,101068.50
2022-10-11T21:49:25.933Z,101075.03
2022-10-11T21:52:22.620Z,101071.19
2022-10-11T21:55:16.667Z,101071.75
2022-10-11T22:01:14.571Z,101074.66
2022-10-11T22:04:20.739Z,101074.41
2022-10-11T22:13:14.217Z,101061.63
2022-10-11T22:19:19.672Z,101072.50
2022-10-11T22:25:13.987Z,101064.09
2022-10-11T22:27:41.099Z,101063.66
2022-10-11T22:30:29.071Z,101067.97
2022-10-11T22:33:17.193Z,101064.66
2022-10-11T22:36:12.147Z,101069.59
2022-10-11T22:38:59.430Z,101070.34
2022-10-11T22:41:47.528Z,101067.81
2022-10-11T22:44:45.670Z,101068.13
2022-10-11T22:47:35.490Z,101070.19
2022-10-11T22:50:30.477Z,101072.59
2022-10-11T22:53:03.056Z,101067.19
2022-10-11T22:55:51.273Z,101070.53
2022-10-11T22:58:39.596Z,101067.13
2022-10-11T23:01:31.720Z,101068.31
2022-10-11T23:04:27.739Z,101068.94
2022-10-11T23:07:15.831Z,101072.88
2022-10-11T23:10:04.142Z,101073.97
2022-10-11T23:12:52.326Z,101073.97
2022-10-11T23:15:46.259Z,101065.94
2022-10-11T23:18:32.425Z,101064.78
2022-10-11T23:21:25.540Z,101073.69
2022-10-11T23:24:14.526Z,101079.78
2022-10-11T23:27:03.173Z,101085.78
2022-10-11T23:29:53.816Z,101086.53
2022-10-11T23:32:45.220Z,101087.16
2022-10-11T23:35:40.617Z,101076.50
2022-10-11T23:38:10.144Z,101085.72
2022-10-11T23:40:59.500Z,101085.72
2022-10-11T23:43:47.326Z,101082.88
2022-10-11T23:46:34.265Z,101083.66
2022-10-11T23:49:22.399Z,101081.25
2022-10-11T23:51:50.665Z,101089.75
2022-10-11T23:54:38.631Z,101086.91
